Time;durP1;ratioP1;P1;durP2;ratioP2;P2;SDS_P1;SDS_P2;PMS_P1;PMS_P2;Temp;Humidity;BMP_temperature;BMP_pressure;BME280_temperature;BME280_humidity;BME280_pressure;Samples;Min_cycle;Max_cycle;Signal;HPM_P1;HPM_P2
2022/07/18 00:00:13;;;;;;;2.27;2.07;;;21.70;51.70;;;;;;10490865;28;20213;-79
2022/07/18 00:05:15;;;;;;;2.13;2.00;;;21.70;51.90;;;;;;10500308;28;20193;-79
2022/07/18 00:10:25;;;;;;;2.57;1.83;;;21.70;51.00;;;;;;10511873;28;20196;-79
2022/07/18 00:15:30;;;;;;;2.10;2.00;;;21.70;51.20;;;;;;10476881;28;20205;-79
2022/07/18 00:20:33;;;;;;;2.17;2.07;;;21.60;50.20;;;;;;10495238;28;20251;-78
2022/07/18 00:25:36;;;;;;;2.07;1.90;;;21.50;50.30;;;;;;10505775;28;20197;-80
2022/07/18 00:30:38;;;;;;;2.07;1.97;;;21.50;49.60;;;;;;10505219;28;20272;-80
2022/07/18 00:35:40;;;;;;;1.87;1.77;;;21.40;50.70;;;;;;10506906;28;20255;-80
2022/07/18 00:40:44;;;;;;;2.10;1.90;;;21.40;51.10;;;;;;10508542;28;20286;-79
2022/07/18 00:45:46;;;;;;;2.00;1.87;;;21.30;49.90;;;;;;10505469;28;20224;-79
2022/07/18 00:50:49;;;;;;;2.00;1.90;;;21.30;49.50;;;;;;10510036;22;21355;-79
2022/07/18 00:55:54;;;;;;;1.53;1.43;;;21.20;50.50;;;;;;10493750;28;20197;-78
2022/07/18 01:06:16;;;;;;;2.13;2.03;;;21.10;50.10;;;;;;10483001;28;20672;-80
2022/07/18 01:11:21;;;;;;;2.60;2.00;;;21.10;49.10;;;;;;10472685;28;20793;-78
2022/07/18 01:16:23;;;;;;;2.93;2.20;;;21.10;49.30;;;;;;10497465;28;20200;-81
2022/07/18 01:21:27;;;;;;;1.90;1.80;;;21.00;49.50;;;;;;10467003;28;20243;-82
2022/07/18 01:26:29;;;;;;;2.00;1.90;;;21.00;50.60;;;;;;10455219;28;20231;-82
2022/07/18 01:31:33;;;;;;;1.50;1.40;;;21.00;49.20;;;;;;10459969;28;20213;-81
2022/07/18 01:36:38;;;;;;;2.00;1.90;;;20.90;50.40;;;;;;10495369;28;20202;-79
2022/07/18 01:41:40;;;;;;;2.17;1.97;;;20.90;50.80;;;;;;10496461;28;20283;-79
2022/07/18 01:46:43;;;;;;;2.13;2.03;;;20.80;50.80;;;;;;10474676;28;20201;-79
2022/07/18 01:51:47;;;;;;;2.60;2.10;;;20.80;50.70;;;;;;10478715;28;20221;-79
2022/07/18 01:56:49;;;;;;;1.90;1.80;;;20.80;51.30;;;;;;10457544;28;20197;-79
2022/07/18 02:01:51;;;;;;;2.20;2.10;;;20.70;51.90;;;;;;10489133;28;20718;-80
2022/07/18 02:06:55;;;;;;;1.97;1.87;;;20.70;51.90;;;;;;10494850;28;20216;-79
2022/07/18 02:11:57;;;;;;;3.83;1.90;;;20.70;52.40;;;;;;10441120;28;20217;-79
2022/07/18 02:16:59;;;;;;;1.90;1.80;;;20.60;52.10;;;;;;10489877;28;20204;-79
2022/07/18 02:22:02;;;;;;;1.97;1.87;;;20.60;51.90;;;;;;10460303;28;20228;-79
2022/07/18 02:27:05;;;;;;;1.90;1.80;;;20.60;51.50;;;;;;10486558;28;20216;-79
2022/07/18 02:32:07;;;;;;;2.10;1.90;;;20.50;51.40;;;;;;10435268;28;20229;-79
2022/07/18 02:37:10;;;;;;;2.53;2.17;;;20.50;52.10;;;;;;10426025;28;20197;-81
2022/07/18 02:42:12;;;;;;;2.27;2.10;;;20.40;52.30;;;;;;10455657;28;20224;-79
2022/07/18 02:47:14;;;;;;;2.33;2.23;;;20.40;52.80;;;;;;10498262;28;20728;-79
2022/07/18 02:52:18;;;;;;;2.00;1.90;;;20.40;52.90;;;;;;10496227;28;20231;-79
2022/07/18 02:57:20;;;;;;;2.20;2.07;;;20.40;52.30;;;;;;10493160;28;20223;-80
2022/07/18 03:02:22;;;;;;;2.87;2.40;;;20.30;52.90;;;;;;10482771;28;20235;-80
2022/07/18 03:07:25;;;;;;;2.10;2.00;;;20.30;52.90;;;;;;10504069;28;20690;-80
2022/07/18 03:12:27;;;;;;;2.57;2.30;;;20.20;53.10;;;;;;10504165;28;20274;-80
2022/07/18 03:17:29;;;;;;;2.27;2.17;;;20.20;54.20;;;;;;10506199;28;20688;-80
2022/07/18 03:22:33;;;;;;;2.17;1.90;;;20.20;53.30;;;;;;10489070;28;20221;-80
2022/07/18 03:27:38;;;;;;;3.83;3.30;;;20.10;53.30;;;;;;10487404;28;20212;-80
2022/07/18 03:32:40;;;;;;;3.40;3.10;;;20.10;54.20;;;;;;10479800;28;20225;-80
2022/07/18 03:37:43;;;;;;;3.33;3.00;;;20.00;54.20;;;;;;10504063;28;20208;-81
2022/07/18 03:42:45;;;;;;;3.50;3.20;;;20.00;54.60;;;;;;10503218;28;20221;-80
2022/07/18 03:47:47;;;;;;;2.90;2.70;;;20.00;54.40;;;;;;10505945;28;20216;-80
2022/07/18 03:52:51;;;;;;;3.27;2.97;;;20.00;55.00;;;;;;10494648;28;20317;-80
2022/07/18 03:57:53;;;;;;;3.80;3.60;;;20.00;55.70;;;;;;10499828;28;20231;-82
2022/07/18 04:02:55;;;;;;;3.00;2.80;;;20.00;55.70;;;;;;10502079;28;20220;-81
2022/07/18 04:07:59;;;;;;;3.40;3.10;;;19.90;56.80;;;;;;10478859;28;20640;-80
2022/07/18 04:13:01;;;;;;;2.93;2.73;;;20.00;56.10;;;;;;10497033;28;20254;-78
2022/07/18 04:18:03;;;;;;;2.63;2.53;;;20.00;56.60;;;;;;10491135;28;20224;-79
2022/07/18 04:23:08;;;;;;;2.20;2.10;;;20.00;57.20;;;;;;10484506;28;20221;-82
2022/07/18 04:28:13;;;;;;;2.70;2.60;;;20.00;58.10;;;;;;10461738;28;20235;-79
2022/07/18 04:33:15;;;;;;;3.07;2.90;;;20.00;57.20;;;;;;10469152;28;20307;-79
2022/07/18 04:38:18;;;;;;;3.07;2.80;;;20.00;57.60;;;;;;10491818;28;20280;-79
2022/07/18 04:43:20;;;;;;;3.17;2.97;;;20.00;57.80;;;;;;10483479;28;20212;-79
2022/07/18 04:48:22;;;;;;;3.10;2.77;;;20.00;58.10;;;;;;10501745;28;20273;-80
2022/07/18 04:53:26;;;;;;;2.70;2.60;;;20.00;58.10;;;;;;10500339;28;20229;-79
2022/07/18 04:58:28;;;;;;;2.40;2.20;;;20.00;59.20;;;;;;10499424;28;20196;-80
2022/07/18 05:03:30;;;;;;;3.10;2.90;;;20.00;58.60;;;;;;10501441;28;20304;-80
2022/07/18 05:08:34;;;;;;;2.90;2.70;;;20.00;60.20;;;;;;10494875;28;20312;-80
2022/07/18 05:13:36;;;;;;;2.97;2.67;;;20.00;59.60;;;;;;10495862;28;20256;-80
2022/07/18 05:18:38;;;;;;;4.10;3.00;;;20.00;59.70;;;;;;10487338;28;20219;-80
2022/07/18 05:23:41;;;;;;;3.63;3.33;;;20.10;58.80;;;;;;10473915;28;20299;-80
2022/07/18 05:28:43;;;;;;;3.13;2.80;;;20.10;59.70;;;;;;10498186;28;20221;-81
2022/07/18 05:33:45;;;;;;;3.10;2.70;;;20.10;59.30;;;;;;10496006;28;20216;-80
2022/07/18 05:38:49;;;;;;;3.07;2.87;;;20.20;59.50;;;;;;10496446;28;20203;-79
2022/07/18 05:43:51;;;;;;;3.87;3.47;;;20.30;58.60;;;;;;10495394;28;20278;-79
2022/07/18 05:48:53;;;;;;;3.43;3.23;;;20.30;59.80;;;;;;10494497;28;20311;-80
2022/07/18 05:53:57;;;;;;;3.63;3.43;;;20.30;60.40;;;;;;10493837;28;20228;-80
2022/07/18 05:58:59;;;;;;;3.70;3.40;;;20.40;60.00;;;;;;10494388;28;20751;-80
2022/07/18 06:04:01;;;;;;;2.90;2.70;;;20.40;61.20;;;;;;10498352;28;20765;-80
2022/07/18 06:09:06;;;;;;;3.70;3.00;;;20.50;61.50;;;;;;10494140;28;20228;-78
2022/07/18 06:14:08;;;;;;;4.37;3.97;;;20.60;60.10;;;;;;10490319;28;20220;-80
2022/07/18 06:19:10;;;;;;;3.83;3.47;;;20.70;61.60;;;;;;10478126;28;20204;-83
2022/07/18 06:24:14;;;;;;;4.20;3.63;;;20.70;61.70;;;;;;10479971;28;20224;-82
2022/07/18 06:29:16;;;;;;;3.63;3.40;;;20.80;61.70;;;;;;10497128;28;20277;-80
2022/07/18 06:34:18;;;;;;;3.70;3.50;;;20.90;63.20;;;;;;10445320;28;20216;-78
2022/07/18 06:39:21;;;;;;;6.20;3.73;;;21.00;63.20;;;;;;10479098;28;20202;-78
2022/07/18 06:44:23;;;;;;;4.57;4.23;;;21.20;61.30;;;;;;10493516;28;20664;-80
2022/07/18 06:49:26;;;;;;;6.20;4.33;;;21.40;61.50;;;;;;10493576;28;20700;-79
2022/07/18 06:54:30;;;;;;;5.40;4.70;;;21.70;63.70;;;;;;10525149;22;20250;-80
2022/07/18 06:59:32;;;;;;;4.97;4.07;;;22.00;63.20;;;;;;10505381;28;20687;-80
2022/07/18 07:04:34;;;;;;;5.30;4.33;;;22.20;62.00;;;;;;10504638;28;20220;-80
2022/07/18 07:09:37;;;;;;;4.57;4.27;;;22.40;60.90;;;;;;10469638;28;20692;-79
2022/07/18 07:14:39;;;;;;;4.00;3.70;;;22.70;61.10;;;;;;10490251;28;20603;-80
2022/07/18 07:19:41;;;;;;;5.30;4.90;;;23.00;61.40;;;;;;10476237;28;20193;-80
2022/07/18 07:24:44;;;;;;;4.80;4.37;;;23.20;60.20;;;;;;10493840;28;20304;-80
2022/07/18 07:29:47;;;;;;;5.10;4.50;;;23.50;60.70;;;;;;10476248;28;20275;-80
2022/07/18 07:34:49;;;;;;;5.23;4.83;;;23.70;60.80;;;;;;10483358;28;20308;-79
2022/07/18 07:39:52;;;;;;;8.83;5.80;;;24.00;60.20;;;;;;10501067;28;20280;-79
2022/07/18 07:44:54;;;;;;;8.83;5.03;;;24.30;58.90;;;;;;10482795;28;20296;-80
2022/07/18 07:49:56;;;;;;;5.83;4.90;;;24.70;59.60;;;;;;10485287;28;20302;-81
2022/07/18 07:55:01;;;;;;;4.77;4.37;;;25.00;58.60;;;;;;10489755;28;20236;-80
2022/07/18 08:00:06;;;;;;;5.90;4.90;;;25.30;58.00;;;;;;10508603;28;20275;-80
2022/07/18 08:05:13;;;;;;;5.87;5.20;;;25.60;57.50;;;;;;10508318;28;20614;-80
2022/07/18 08:10:17;;;;;;;6.87;3.93;;;26.00;56.30;;;;;;10482620;28;20220;-80
2022/07/18 08:15:19;;;;;;;4.70;3.57;;;26.30;56.10;;;;;;10499296;28;20660;-79
2022/07/18 08:20:22;;;;;;;5.87;3.80;;;26.90;55.00;;;;;;10465564;28;20200;-79
2022/07/18 08:25:26;;;;;;;4.30;4.00;;;27.50;54.20;;;;;;10492637;28;20216;-80
2022/07/18 08:30:29;;;;;;;4.57;4.00;;;28.20;53.10;;;;;;10491804;28;20259;-81
2022/07/18 08:35:32;;;;;;;3.87;3.57;;;28.80;51.40;;;;;;10478138;28;20278;-80
2022/07/18 08:40:38;;;;;;;3.83;3.47;;;29.50;50.50;;;;;;10497628;28;20196;-81
2022/07/18 08:45:43;;;;;;;3.30;3.10;;;30.00;49.60;;;;;;10462703;28;20273;-81
2022/07/18 08:50:46;;;;;;;5.60;3.43;;;30.50;49.40;;;;;;10479922;28;20213;-81
2022/07/18 08:55:49;;;;;;;3.30;3.10;;;31.00;47.50;;;;;;10497769;28;20259;-80
2022/07/18 09:00:52;;;;;;;2.70;2.50;;;31.50;46.30;;;;;;10501333;28;20197;-81
2022/07/18 09:06:05;;;;;;;4.00;3.30;;;31.70;46.30;;;;;;10484113;28;20232;-80
2022/07/18 09:11:12;;;;;;;3.30;3.10;;;32.00;46.90;;;;;;10494356;28;20216;-81
2022/07/18 09:16:15;;;;;;;5.13;3.30;;;32.40;45.90;;;;;;10494575;28;20296;-81
2022/07/18 09:21:18;;;;;;;3.10;2.90;;;32.70;43.40;;;;;;10495637;28;20683;-80
2022/07/18 09:26:42;;;;;;;3.17;2.97;;;32.90;42.90;;;;;;10496100;28;20287;-81
2022/07/18 09:31:50;;;;;;;3.63;3.03;;;33.20;42.30;;;;;;10496424;28;20300;-80
2022/07/18 09:36:56;;;;;;;5.50;3.10;;;33.40;41.00;;;;;;10478840;28;20204;-81
2022/07/18 09:47:27;;;;;;;2.90;2.70;;;33.70;41.20;;;;;;10531388;27;20513;-81
2022/07/18 09:52:29;;;;;;;3.70;3.40;;;34.40;40.00;;;;;;10518070;28;20251;-80
2022/07/18 09:57:31;;;;;;;3.20;3.00;;;34.90;39.40;;;;;;10489632;28;20295;-81
2022/07/18 10:02:35;;;;;;;2.38;2.17;;;35.60;37.80;;;;;;10495445;28;20479;-82
2022/07/18 10:07:37;;;;;;;2.60;2.40;;;36.50;37.50;;;;;;10494269;28;20207;-81
2022/07/18 10:12:39;;;;;;;2.35;2.25;;;37.60;36.00;;;;;;10494522;28;20294;-80
2022/07/18 10:17:42;;;;;;;2.97;2.80;;;38.20;33.40;;;;;;10494050;28;20227;-81
2022/07/18 10:22:47;;;;;;;3.28;2.75;;;38.10;33.40;;;;;;10475317;28;20707;-81
2022/07/18 10:27:52;;;;;;;2.70;2.50;;;37.80;33.90;;;;;;10480104;28;20740;-82
2022/07/18 10:32:55;;;;;;;3.17;3.00;;;36.90;32.90;;;;;;10492172;28;20224;-81
2022/07/18 10:38:19;;;;;;;3.20;2.90;;;35.60;33.80;;;;;;10487043;28;20678;-80
2022/07/18 10:43:42;;;;;;;3.17;2.50;;;34.30;34.60;;;;;;10489664;28;20245;-80
2022/07/18 10:48:57;;;;;;;2.17;2.07;;;33.10;37.10;;;;;;10490392;28;20586;-80
2022/07/18 10:54:11;;;;;;;3.37;3.07;;;32.40;38.10;;;;;;10487798;28;20209;-80
2022/07/18 10:59:16;;;;;;;2.60;2.40;;;31.70;38.20;;;;;;10462939;28;20221;-81
2022/07/18 11:04:27;;;;;;;1.80;1.70;;;31.20;37.60;;;;;;10459511;28;20276;-82
2022/07/18 11:09:31;;;;;;;3.30;2.40;;;30.70;38.90;;;;;;10448937;28;20638;-81
2022/07/18 11:14:59;;;;;;;2.60;2.50;;;30.40;38.00;;;;;;10466885;28;20217;-81
2022/07/18 11:20:40;;;;;;;2.70;2.60;;;30.00;41.50;;;;;;10465214;28;20197;-82
2022/07/18 11:25:44;;;;;;;2.50;2.40;;;29.70;43.20;;;;;;10433033;28;20229;-81
2022/07/18 11:30:46;;;;;;;2.10;2.00;;;29.40;42.10;;;;;;10457474;28;20576;-80
2022/07/18 11:35:49;;;;;;;2.50;2.40;;;29.10;40.40;;;;;;10457160;28;20681;-79
2022/07/18 11:40:53;;;;;;;2.60;2.50;;;29.10;40.40;;;;;;10456422;28;20575;-80
2022/07/18 11:46:06;;;;;;;3.07;2.97;;;29.00;41.20;;;;;;10458696;28;20221;-80
2022/07/18 11:51:10;;;;;;;2.90;2.43;;;29.00;40.90;;;;;;10454754;28;20223;-81
2022/07/18 11:56:14;;;;;;;2.23;2.13;;;29.00;39.70;;;;;;10459088;28;20205;-80
2022/07/18 12:01:17;;;;;;;2.17;2.07;;;29.00;38.20;;;;;;10458552;28;20217;-81
2022/07/18 12:06:21;;;;;;;1.80;1.70;;;29.00;37.60;;;;;;10456766;28;20221;-81
2022/07/18 12:11:30;;;;;;;2.37;2.27;;;29.00;37.60;;;;;;10458637;28;20221;-81
2022/07/18 12:16:35;;;;;;;2.50;2.40;;;29.00;40.70;;;;;;10451745;28;20201;-81
2022/07/18 12:21:49;;;;;;;2.43;2.23;;;28.90;39.70;;;;;;10455835;28;20225;-81
2022/07/18 12:27:13;;;;;;;2.67;2.43;;;28.90;39.60;;;;;;10458115;28;20255;-82
2022/07/18 12:32:16;;;;;;;2.50;2.37;;;28.90;38.90;;;;;;10462463;28;20471;-81
2022/07/18 12:37:25;;;;;;;2.43;2.33;;;28.80;41.70;;;;;;10465071;28;20181;-80
2022/07/18 12:42:34;;;;;;;3.93;2.73;;;28.70;42.20;;;;;;10445835;28;20686;-80
2022/07/18 12:47:40;;;;;;;2.70;2.60;;;28.60;41.30;;;;;;10461507;28;20724;-80
2022/07/18 12:52:42;;;;;;;4.40;2.70;;;28.70;40.80;;;;;;10458453;28;20241;-81
2022/07/18 12:57:46;;;;;;;2.63;2.53;;;28.70;42.20;;;;;;10455887;28;20667;-80
2022/07/18 13:02:48;;;;;;;2.20;2.10;;;28.70;42.80;;;;;;10455072;28;20220;-80
2022/07/18 13:07:51;;;;;;;2.93;2.83;;;28.70;41.80;;;;;;10455203;28;20219;-81
2022/07/18 13:12:54;;;;;;;3.03;2.70;;;28.70;41.80;;;;;;10458782;28;20209;-81
2022/07/18 13:17:56;;;;;;;3.40;2.50;;;28.70;40.10;;;;;;10460564;28;20251;-81
2022/07/18 13:23:01;;;;;;;2.00;1.90;;;28.80;40.80;;;;;;10461450;28;20452;-81
2022/07/18 13:28:07;;;;;;;2.80;2.70;;;28.90;42.00;;;;;;10459522;28;20228;-80
2022/07/18 13:33:09;;;;;;;2.37;2.27;;;29.00;41.60;;;;;;10459316;28;20217;-81
2022/07/18 13:38:11;;;;;;;9.63;2.50;;;29.00;40.30;;;;;;10453786;28;20221;-81
2022/07/18 13:43:15;;;;;;;4.20;2.87;;;29.10;41.30;;;;;;10436898;28;20233;-81
2022/07/18 13:48:17;;;;;;;2.50;2.30;;;29.10;41.40;;;;;;10448516;28;20228;-82
2022/07/18 13:53:19;;;;;;;4.40;2.77;;;29.20;41.10;;;;;;10452740;28;20736;-83
2022/07/18 13:58:23;;;;;;;2.70;2.50;;;29.20;41.80;;;;;;10443019;28;20228;-80
2022/07/18 14:03:25;;;;;;;2.80;2.70;;;29.10;42.60;;;;;;10431702;28;20455;-81
2022/07/18 14:08:27;;;;;;;2.10;1.93;;;29.00;42.60;;;;;;10440334;28;20555;-80
2022/07/18 14:13:31;;;;;;;4.63;3.20;;;28.90;42.90;;;;;;10429315;28;20228;-80
2022/07/18 14:18:33;;;;;;;2.43;2.07;;;29.00;40.70;;;;;;10431068;28;20224;-80
2022/07/18 14:23:35;;;;;;;2.50;2.40;;;29.20;41.70;;;;;;10456295;28;20773;-80
2022/07/18 14:28:38;;;;;;;3.27;3.07;;;29.20;41.10;;;;;;10450187;28;20616;-80
2022/07/18 14:33:40;;;;;;;2.63;2.43;;;29.20;40.60;;;;;;10455127;28;20304;-83
2022/07/18 14:38:43;;;;;;;2.83;2.70;;;29.20;38.80;;;;;;10435906;28;20202;-83
2022/07/18 14:43:46;;;;;;;2.80;2.70;;;29.20;42.20;;;;;;10437785;28;20224;-81
2022/07/18 14:48:51;;;;;;;2.80;2.40;;;29.20;40.60;;;;;;10458282;28;20284;-81
2022/07/18 14:53:53;;;;;;;4.50;3.47;;;29.10;41.30;;;;;;10431373;28;20259;-82
2022/07/18 14:58:57;;;;;;;2.30;2.20;;;29.10;42.60;;;;;;10456282;28;20205;-82
2022/07/18 15:03:59;;;;;;;3.23;3.03;;;29.10;44.50;;;;;;10455926;28;20224;-81
2022/07/18 15:09:01;;;;;;;2.77;2.67;;;28.90;44.10;;;;;;10454362;28;20197;-81
2022/07/18 15:14:05;;;;;;;3.07;2.20;;;28.80;42.60;;;;;;10454213;28;20221;-82
2022/07/18 15:19:07;;;;;;;3.30;3.10;;;28.80;44.90;;;;;;10456139;28;20201;-80
2022/07/18 15:24:09;;;;;;;3.30;3.07;;;28.70;45.10;;;;;;10459619;28;20755;-80
2022/07/18 15:29:12;;;;;;;1.87;1.77;;;28.70;42.70;;;;;;10433493;28;20721;-80
2022/07/18 15:34:14;;;;;;;2.47;2.27;;;28.90;43.00;;;;;;10449858;28;20305;-81
2022/07/18 15:39:16;;;;;;;2.60;2.50;;;28.90;44.00;;;;;;10466190;28;20205;-80
2022/07/18 15:44:20;;;;;;;2.43;2.33;;;28.90;42.90;;;;;;10452587;28;20302;-80
2022/07/18 15:49:22;;;;;;;2.70;2.60;;;28.80;46.10;;;;;;10449634;28;20213;-82
2022/07/18 15:54:24;;;;;;;2.73;2.57;;;28.70;42.90;;;;;;10448907;28;20572;-81
2022/07/18 15:59:28;;;;;;;2.73;2.53;;;28.90;43.00;;;;;;10449760;28;20269;-81
2022/07/18 16:04:30;;;;;;;4.70;2.70;;;28.90;45.10;;;;;;10447954;28;20217;-81
2022/07/18 16:09:32;;;;;;;2.20;2.00;;;28.80;44.40;;;;;;10468772;28;20224;-82
2022/07/18 16:14:36;;;;;;;2.53;2.33;;;28.80;42.10;;;;;;10459349;28;20216;-82
2022/07/18 16:19:38;;;;;;;3.10;2.80;;;28.90;42.80;;;;;;10468320;28;20696;-82
2022/07/18 16:24:40;;;;;;;3.87;3.57;;;28.90;44.10;;;;;;10468319;28;20228;-83
2022/07/18 16:29:43;;;;;;;2.53;2.37;;;28.90;42.70;;;;;;10462311;28;20225;-84
2022/07/18 16:34:45;;;;;;;2.70;2.60;;;28.80;41.20;;;;;;10479263;28;20368;-82
2022/07/18 16:39:52;;;;;;;3.40;3.20;;;28.80;43.90;;;;;;10466522;28;20204;-82
2022/07/18 16:44:56;;;;;;;5.47;5.07;;;28.80;42.10;;;;;;10440815;28;20647;-83
2022/07/18 16:49:58;;;;;;;3.53;3.30;;;28.80;43.00;;;;;;10468058;28;20227;-82
2022/07/18 16:55:01;;;;;;;5.17;4.87;;;28.80;41.00;;;;;;10460080;28;20249;-81
2022/07/18 17:00:06;;;;;;;6.43;3.33;;;28.90;41.80;;;;;;10457452;28;20261;-83
2022/07/18 17:05:09;;;;;;;5.70;4.80;;;28.90;42.70;;;;;;10461579;28;20225;-83
2022/07/18 17:10:12;;;;;;;5.60;3.23;;;28.90;42.50;;;;;;10441959;28;20247;-84
2022/07/18 17:15:17;;;;;;;2.87;2.70;;;28.80;43.30;;;;;;10443788;28;20270;-86
2022/07/18 17:20:20;;;;;;;10.40;3.20;;;28.70;44.80;;;;;;10464373;28;20221;-82
2022/07/18 17:25:22;;;;;;;3.43;3.23;;;28.50;47.70;;;;;;10464905;28;20216;-82
2022/07/18 17:30:26;;;;;;;3.00;2.90;;;28.30;44.20;;;;;;10466252;28;20197;-81
2022/07/18 17:35:29;;;;;;;5.07;3.50;;;28.30;44.60;;;;;;10443284;28;20209;-83
2022/07/18 17:40:32;;;;;;;3.40;3.10;;;28.30;43.80;;;;;;10468925;28;20220;-82
2022/07/18 17:45:36;;;;;;;4.00;3.70;;;28.30;44.20;;;;;;10459955;28;20347;-81
2022/07/18 17:50:38;;;;;;;3.50;3.30;;;28.30;43.80;;;;;;10458618;28;20243;-82
2022/07/18 17:55:41;;;;;;;3.47;3.27;;;28.20;45.30;;;;;;10456295;28;20220;-83
2022/07/18 18:00:45;;;;;;;3.03;2.87;;;28.20;46.00;;;;;;10448884;28;20193;-83
2022/07/18 18:05:48;;;;;;;3.13;3.03;;;28.10;46.70;;;;;;10449699;28;20217;-83
2022/07/18 18:10:50;;;;;;;5.60;3.00;;;28.00;47.20;;;;;;10441812;28;20625;-82
2022/07/18 18:15:54;;;;;;;3.33;3.13;;;28.10;47.70;;;;;;10461305;28;20225;-81
2022/07/18 18:21:06;;;;;;;3.03;2.93;;;28.00;48.00;;;;;;10465498;28;20193;-82
2022/07/18 18:26:08;;;;;;;4.03;3.13;;;28.00;48.30;;;;;;10456850;28;20220;-83
2022/07/18 18:31:14;;;;;;;3.50;3.30;;;27.90;48.60;;;;;;10478130;28;20910;-79
2022/07/18 18:36:16;;;;;;;5.57;3.10;;;27.90;48.90;;;;;;10492391;28;20250;-83
2022/07/18 18:41:18;;;;;;;3.20;2.90;;;27.80;49.00;;;;;;10458887;28;20632;-82
2022/07/18 18:46:22;;;;;;;4.93;3.40;;;27.80;49.20;;;;;;10457350;28;20319;-82
2022/07/18 18:51:25;;;;;;;3.67;3.37;;;27.70;49.40;;;;;;10470027;22;20213;-79
2022/07/18 19:02:08;;;;;;;3.57;3.27;;;27.50;49.70;;;;;;10404879;28;20225;-81
2022/07/18 19:14:21;;;;;;;;;;;;;;;;;;;;;
2022/07/18 19:20:13;;;;;;;3.47;3.27;;;26.90;51.40;;;;;;10414992;28;20213;-78
2022/07/18 19:25:19;;;;;;;4.13;3.73;;;26.80;51.70;;;;;;10443345;28;20299;-78
2022/07/18 19:30:21;;;;;;;4.00;3.70;;;26.60;51.50;;;;;;10434769;28;20201;-78
2022/07/18 19:35:25;;;;;;;3.67;3.37;;;26.50;51.80;;;;;;10439955;28;20291;-79
2022/07/18 19:40:27;;;;;;;3.13;3.00;;;26.40;52.00;;;;;;10434096;28;20248;-80
2022/07/18 19:45:29;;;;;;;4.87;3.47;;;26.30;51.60;;;;;;10428893;28;20233;-79
2022/07/18 19:50:33;;;;;;;4.13;3.83;;;26.30;52.00;;;;;;10442660;28;20219;-79
2022/07/18 19:55:35;;;;;;;4.17;3.80;;;26.20;51.60;;;;;;10444357;28;20213;-78
2022/07/18 20:00:38;;;;;;;3.40;3.20;;;26.10;52.10;;;;;;10452072;28;20201;-79
2022/07/18 20:05:41;;;;;;;5.00;3.30;;;26.00;52.40;;;;;;10454310;28;20217;-78
2022/07/18 20:10:44;;;;;;;3.47;3.27;;;26.00;51.90;;;;;;10442708;28;20212;-78
2022/07/18 20:15:46;;;;;;;3.87;3.57;;;25.90;52.10;;;;;;10441356;28;20890;-78
2022/07/18 20:20:49;;;;;;;3.60;3.30;;;25.80;52.00;;;;;;10446633;28;20232;-79
2022/07/18 20:25:51;;;;;;;5.10;3.20;;;25.80;52.30;;;;;;10444147;28;20320;-79
2022/07/18 20:30:53;;;;;;;8.80;3.30;;;25.70;52.10;;;;;;10441060;28;20701;-79
2022/07/18 20:35:57;;;;;;;3.70;3.20;;;25.70;52.40;;;;;;10442505;28;20304;-79
2022/07/18 20:40:59;;;;;;;3.57;3.27;;;25.60;52.70;;;;;;10442436;28;20212;-78
2022/07/18 20:46:01;;;;;;;3.80;3.50;;;25.50;52.60;;;;;;10442869;28;20347;-79
2022/07/18 20:51:10;;;;;;;3.60;3.30;;;25.50;52.50;;;;;;10442949;28;20224;-78
2022/07/18 20:56:12;;;;;;;3.67;2.93;;;25.40;52.50;;;;;;10439701;28;20243;-79
2022/07/18 21:01:15;;;;;;;6.00;3.07;;;25.30;53.20;;;;;;10440045;28;20660;-79
2022/07/18 21:06:18;;;;;;;4.33;3.30;;;25.30;52.40;;;;;;10438496;28;20245;-79
2022/07/18 21:11:20;;;;;;;6.60;3.53;;;25.20;52.60;;;;;;10441708;28;20209;-79
2022/07/18 21:16:23;;;;;;;3.53;3.33;;;25.10;52.60;;;;;;10442516;28;20278;-78
2022/07/18 21:21:26;;;;;;;3.67;3.37;;;25.10;53.30;;;;;;10433950;28;20239;-79
2022/07/18 21:26:28;;;;;;;3.30;3.10;;;25.00;53.40;;;;;;10437599;28;20640;-79
2022/07/18 21:31:30;;;;;;;4.87;2.67;;;25.00;53.10;;;;;;10433234;28;20205;-79
2022/07/18 21:36:34;;;;;;;3.33;3.10;;;25.00;54.10;;;;;;10443637;28;20201;-79
2022/07/18 21:41:36;;;;;;;3.30;3.10;;;24.90;53.90;;;;;;10445331;28;20256;-78
2022/07/18 21:46:39;;;;;;;3.63;3.23;;;24.80;52.90;;;;;;10442352;28;20431;-77
2022/07/18 21:51:43;;;;;;;3.40;3.20;;;24.80;53.70;;;;;;10444917;28;20221;-77
2022/07/18 21:56:45;;;;;;;7.17;3.07;;;24.70;53.70;;;;;;10443723;28;20278;-78
2022/07/18 22:01:48;;;;;;;3.17;2.97;;;24.60;54.30;;;;;;10444875;28;20217;-78
2022/07/18 22:06:52;;;;;;;4.13;3.20;;;24.50;54.40;;;;;;10442727;28;20672;-78
2022/07/18 22:11:54;;;;;;;4.00;3.50;;;24.40;54.20;;;;;;10444454;28;20256;-77
2022/07/18 22:16:56;;;;;;;3.17;2.93;;;24.40;54.40;;;;;;10443611;28;20201;-77
2022/07/18 22:21:59;;;;;;;3.07;2.87;;;24.40;55.30;;;;;;10444713;28;20221;-78
2022/07/18 22:27:02;;;;;;;3.40;3.20;;;24.30;55.80;;;;;;10444248;28;20217;-78
2022/07/18 22:32:04;;;;;;;5.97;3.37;;;24.30;55.80;;;;;;10443577;28;20217;-78
2022/07/18 22:37:08;;;;;;;3.27;3.07;;;24.20;56.10;;;;;;10444631;28;20290;-78
2022/07/18 22:42:10;;;;;;;3.00;2.90;;;24.20;56.50;;;;;;10444351;28;20308;-79
2022/07/18 22:47:12;;;;;;;3.20;3.00;;;24.10;59.00;;;;;;10441433;28;20312;-79
2022/07/18 22:52:16;;;;;;;3.60;3.40;;;24.00;57.40;;;;;;10445605;28;20265;-77
2022/07/18 22:57:18;;;;;;;4.17;3.77;;;24.00;58.80;;;;;;10449506;28;20197;-77
2022/07/18 23:02:20;;;;;;;3.87;3.20;;;23.90;57.80;;;;;;10451362;28;20307;-77
2022/07/18 23:07:24;;;;;;;3.20;3.00;;;23.90;57.60;;;;;;10442034;28;20224;-77
2022/07/18 23:12:28;;;;;;;3.50;3.30;;;23.90;57.90;;;;;;10449368;28;20237;-77
2022/07/18 23:17:30;;;;;;;3.80;3.47;;;23.80;58.40;;;;;;10451122;28;20223;-77
2022/07/18 23:22:34;;;;;;;4.13;3.83;;;23.80;58.80;;;;;;10449826;28;20569;-78
2022/07/18 23:27:36;;;;;;;8.30;4.40;;;23.70;59.30;;;;;;10448019;28;20308;-77
2022/07/18 23:32:39;;;;;;;3.33;3.13;;;23.60;58.90;;;;;;10449194;28;20229;-78
2022/07/18 23:37:44;;;;;;;3.53;3.33;;;23.60;59.50;;;;;;10443234;28;20703;-78
2022/07/18 23:42:46;;;;;;;3.70;3.40;;;23.50;59.40;;;;;;10444633;28;20219;-78
2022/07/18 23:47:48;;;;;;;3.73;3.43;;;23.40;59.70;;;;;;10448042;28;20220;-77
2022/07/18 23:52:52;;;;;;;3.60;3.30;;;23.40;59.30;;;;;;10450198;28;20716;-78
2022/07/18 23:57:54;;;;;;;4.67;4.30;;;23.40;60.00;;;;;;10430432;28;20226;-79
